sensor_id;sensor_type;location;lat;lon;timestamp;pressure;altitude;pressure_sealevel;temperature;humidity
76478;BME280;65309;49.790;18.972;2022-12-31T00:01:34;96816.78;;;8.47;68.91
76478;BME280;65309;49.790;18.972;2022-12-31T00:06:35;96823.97;;;8.36;69.58
76478;BME280;65309;49.790;18.972;2022-12-31T00:11:37;96826.91;;;8.32;70.07
76478;BME280;65309;49.790;18.972;2022-12-31T00:16:41;96823.69;;;8.34;69.77
76478;BME280;65309;49.790;18.972;2022-12-31T00:21:43;96829.50;;;8.36;70.52
76478;BME280;65309;49.790;18.972;2022-12-31T00:26:45;96832.38;;;8.50;70.60
76478;BME280;65309;49.790;18.972;2022-12-31T00:31:49;96817.50;;;8.57;71.07
76478;BME280;65309;49.790;18.972;2022-12-31T00:36:51;96851.97;;;8.52;70.78
76478;BME280;65309;49.790;18.972;2022-12-31T00:41:53;96853.22;;;8.42;71.15
76478;BME280;65309;49.790;18.972;2022-12-31T00:46:56;96868.38;;;8.38;71.97
76478;BME280;65309;49.790;18.972;2022-12-31T00:51:58;96833.63;;;8.31;71.41
76478;BME280;65309;49.790;18.972;2022-12-31T00:57:00;96839.31;;;8.37;72.22
76478;BME280;65309;49.790;18.972;2022-12-31T01:02:04;96870.66;;;8.39;71.17
76478;BME280;65309;49.790;18.972;2022-12-31T01:07:06;96863.94;;;8.40;72.70
76478;BME280;65309;49.790;18.972;2022-12-31T01:12:08;96850.00;;;8.44;72.85
76478;BME280;65309;49.790;18.972;2022-12-31T01:17:11;96856.59;;;8.46;73.06
76478;BME280;65309;49.790;18.972;2022-12-31T01:22:14;96883.53;;;8.51;72.12
76478;BME280;65309;49.790;18.972;2022-12-31T01:27:16;96883.19;;;8.58;72.20
76478;BME280;65309;49.790;18.972;2022-12-31T01:32:19;96880.72;;;8.60;73.09
76478;BME280;65309;49.790;18.972;2022-12-31T01:37:21;96866.66;;;8.58;71.69
76478;BME280;65309;49.790;18.972;2022-12-31T01:42:23;96870.03;;;8.53;73.06
76478;BME280;65309;49.790;18.972;2022-12-31T01:47:36;96886.31;;;8.42;72.21
76478;BME280;65309;49.790;18.972;2022-12-31T01:52:40;96906.38;;;8.34;72.66
76478;BME280;65309;49.790;18.972;2022-12-31T01:57:45;96909.09;;;8.15;73.54
76478;BME280;65309;49.790;18.972;2022-12-31T02:02:49;96899.75;;;8.31;72.97
76478;BME280;65309;49.790;18.972;2022-12-31T02:07:52;96894.53;;;8.24;73.82
76478;BME280;65309;49.790;18.972;2022-12-31T02:12:54;96920.59;;;8.32;73.24
76478;BME280;65309;49.790;18.972;2022-12-31T02:18:07;96908.19;;;8.37;72.46
76478;BME280;65309;49.790;18.972;2022-12-31T02:23:32;96918.44;;;8.45;73.62
76478;BME280;65309;49.790;18.972;2022-12-31T02:28:56;96909.56;;;8.41;73.02
76478;BME280;65309;49.790;18.972;2022-12-31T02:34:10;96925.34;;;8.41;73.21
76478;BME280;65309;49.790;18.972;2022-12-31T02:39:14;96911.22;;;8.48;73.13
76478;BME280;65309;49.790;18.972;2022-12-31T02:44:21;96896.72;;;8.38;73.52
76478;BME280;65309;49.790;18.972;2022-12-31T02:49:33;96894.38;;;8.18;73.65
76478;BME280;65309;49.790;18.972;2022-12-31T02:54:46;96896.69;;;8.02;74.50
76478;BME280;65309;49.790;18.972;2022-12-31T02:59:54;96893.03;;;7.96;73.79
76478;BME280;65309;49.790;18.972;2022-12-31T03:05:21;96896.41;;;7.91;73.63
76478;BME280;65309;49.790;18.972;2022-12-31T03:10:24;96898.38;;;7.90;73.45
76478;BME280;65309;49.790;18.972;2022-12-31T03:15:28;96891.50;;;7.95;74.08
76478;BME280;65309;49.790;18.972;2022-12-31T03:20:33;96910.47;;;7.93;73.59
76478;BME280;65309;49.790;18.972;2022-12-31T03:25:55;96913.84;;;7.97;74.02
76478;BME280;65309;49.790;18.972;2022-12-31T03:30:58;96923.78;;;7.94;73.20
76478;BME280;65309;49.790;18.972;2022-12-31T03:36:03;96945.66;;;7.89;72.65
76478;BME280;65309;49.790;18.972;2022-12-31T03:41:09;96931.88;;;7.98;72.81
76478;BME280;65309;49.790;18.972;2022-12-31T03:46:11;96926.69;;;8.00;74.10
76478;BME280;65309;49.790;18.972;2022-12-31T03:51:14;96944.28;;;8.11;73.49
76478;BME280;65309;49.790;18.972;2022-12-31T03:56:17;96963.28;;;8.09;72.83
76478;BME280;65309;49.790;18.972;2022-12-31T04:01:19;96970.91;;;7.96;74.12
76478;BME280;65309;49.790;18.972;2022-12-31T04:06:26;96973.81;;;8.02;74.85
76478;BME280;65309;49.790;18.972;2022-12-31T04:11:28;96991.84;;;7.94;75.84
76478;BME280;65309;49.790;18.972;2022-12-31T04:16:30;96984.66;;;7.87;75.79
76478;BME280;65309;49.790;18.972;2022-12-31T04:21:34;96973.66;;;7.87;75.12
76478;BME280;65309;49.790;18.972;2022-12-31T04:26:36;96988.94;;;7.79;76.29
76478;BME280;65309;49.790;18.972;2022-12-31T04:31:39;96979.91;;;7.78;75.93
76478;BME280;65309;49.790;18.972;2022-12-31T04:36:42;96983.91;;;7.86;77.04
76478;BME280;65309;49.790;18.972;2022-12-31T04:41:44;96980.84;;;7.84;76.03
76478;BME280;65309;49.790;18.972;2022-12-31T04:46:46;97001.47;;;7.71;76.81
76478;BME280;65309;49.790;18.972;2022-12-31T04:51:49;96987.72;;;7.89;77.43
76478;BME280;65309;49.790;18.972;2022-12-31T04:56:51;97004.38;;;7.85;76.21
76478;BME280;65309;49.790;18.972;2022-12-31T05:01:53;97011.28;;;7.90;75.35
76478;BME280;65309;49.790;18.972;2022-12-31T05:06:57;97013.59;;;7.92;75.18
76478;BME280;65309;49.790;18.972;2022-12-31T05:11:59;97012.97;;;7.88;76.10
76478;BME280;65309;49.790;18.972;2022-12-31T05:17:01;97020.78;;;7.98;75.83
76478;BME280;65309;49.790;18.972;2022-12-31T05:22:04;97020.63;;;8.02;75.13
76478;BME280;65309;49.790;18.972;2022-12-31T05:27:27;97012.09;;;8.09;76.08
76478;BME280;65309;49.790;18.972;2022-12-31T05:32:32;97029.34;;;7.91;75.50
76478;BME280;65309;49.790;18.972;2022-12-31T05:37:35;97025.66;;;7.85;76.84
76478;BME280;65309;49.790;18.972;2022-12-31T05:42:37;97026.75;;;7.88;76.58
76478;BME280;65309;49.790;18.972;2022-12-31T05:47:39;97014.81;;;7.91;76.29
76478;BME280;65309;49.790;18.972;2022-12-31T05:52:44;97009.41;;;7.78;76.39
76478;BME280;65309;49.790;18.972;2022-12-31T05:57:48;97009.88;;;7.67;77.04
76478;BME280;65309;49.790;18.972;2022-12-31T06:02:50;97017.16;;;7.61;77.48
76478;BME280;65309;49.790;18.972;2022-12-31T06:07:54;97024.00;;;7.48;76.99
76478;BME280;65309;49.790;18.972;2022-12-31T06:12:56;97003.63;;;7.36;77.60
76478;BME280;65309;49.790;18.972;2022-12-31T06:17:58;97029.38;;;7.51;78.07
76478;BME280;65309;49.790;18.972;2022-12-31T06:23:02;97030.44;;;7.54;77.56
76478;BME280;65309;49.790;18.972;2022-12-31T06:28:04;97020.25;;;7.63;77.98
76478;BME280;65309;49.790;18.972;2022-12-31T06:33:06;97037.66;;;7.60;77.64
76478;BME280;65309;49.790;18.972;2022-12-31T06:38:10;97030.34;;;7.66;77.46
76478;BME280;65309;49.790;18.972;2022-12-31T06:43:12;97037.38;;;7.67;78.22
76478;BME280;65309;49.790;18.972;2022-12-31T06:48:14;97038.63;;;7.75;77.88
76478;BME280;65309;49.790;18.972;2022-12-31T06:53:17;97042.59;;;7.74;78.43
76478;BME280;65309;49.790;18.972;2022-12-31T06:58:19;97034.16;;;7.69;77.95
76478;BME280;65309;49.790;18.972;2022-12-31T07:03:27;97018.00;;;7.80;78.08
76478;BME280;65309;49.790;18.972;2022-12-31T07:08:45;97061.88;;;7.74;77.75
76478;BME280;65309;49.790;18.972;2022-12-31T07:19:19;97063.16;;;7.92;78.70
76478;BME280;65309;49.790;18.972;2022-12-31T07:24:26;97081.69;;;8.00;79.16
76478;BME280;65309;49.790;18.972;2022-12-31T07:29:36;97086.13;;;7.98;78.19
76478;BME280;65309;49.790;18.972;2022-12-31T07:34:45;97072.41;;;8.16;78.55
76478;BME280;65309;49.790;18.972;2022-12-31T07:40:01;97106.94;;;8.39;77.34
76478;BME280;65309;49.790;18.972;2022-12-31T07:45:11;97070.63;;;8.40;77.52
76478;BME280;65309;49.790;18.972;2022-12-31T07:50:18;97070.34;;;8.47;76.25
76478;BME280;65309;49.790;18.972;2022-12-31T07:55:21;97079.53;;;8.53;76.36
76478;BME280;65309;49.790;18.972;2022-12-31T08:00:24;97065.16;;;8.58;75.62
76478;BME280;65309;49.790;18.972;2022-12-31T08:05:31;97051.38;;;8.67;75.58
76478;BME280;65309;49.790;18.972;2022-12-31T08:10:38;97060.25;;;8.81;76.16
76478;BME280;65309;49.790;18.972;2022-12-31T08:15:43;97032.47;;;9.02;76.69
76478;BME280;65309;49.790;18.972;2022-12-31T08:20:51;97083.81;;;9.18;74.96
76478;BME280;65309;49.790;18.972;2022-12-31T08:26:11;97099.84;;;9.47;74.28
76478;BME280;65309;49.790;18.972;2022-12-31T08:31:19;97095.91;;;9.81;73.19
76478;BME280;65309;49.790;18.972;2022-12-31T08:36:28;97091.66;;;9.61;73.20
76478;BME280;65309;49.790;18.972;2022-12-31T08:41:40;97087.66;;;9.72;72.43
76478;BME280;65309;49.790;18.972;2022-12-31T08:46:48;97071.78;;;9.81;74.11
76478;BME280;65309;49.790;18.972;2022-12-31T08:51:56;97084.56;;;9.79;72.69
76478;BME280;65309;49.790;18.972;2022-12-31T08:57:12;97079.50;;;10.10;74.88
76478;BME280;65309;49.790;18.972;2022-12-31T09:02:28;97121.78;;;10.34;73.15
76478;BME280;65309;49.790;18.972;2022-12-31T09:07:40;97125.56;;;10.46;71.83
76478;BME280;65309;49.790;18.972;2022-12-31T09:12:52;97135.56;;;10.43;71.61
76478;BME280;65309;49.790;18.972;2022-12-31T09:17:55;97091.59;;;10.45;73.71
76478;BME280;65309;49.790;18.972;2022-12-31T09:22:59;97120.84;;;10.37;74.24
76478;BME280;65309;49.790;18.972;2022-12-31T09:28:14;97133.34;;;10.24;74.04
76478;BME280;65309;49.790;18.972;2022-12-31T09:33:28;97146.44;;;10.47;72.71
76478;BME280;65309;49.790;18.972;2022-12-31T09:38:36;97143.88;;;10.67;72.62
76478;BME280;65309;49.790;18.972;2022-12-31T09:44:09;97128.13;;;10.49;71.55
76478;BME280;65309;49.790;18.972;2022-12-31T09:49:43;97136.44;;;10.49;72.01
76478;BME280;65309;49.790;18.972;2022-12-31T09:55:04;97138.38;;;10.34;71.81
76478;BME280;65309;49.790;18.972;2022-12-31T10:00:20;97124.72;;;10.31;71.97
76478;BME280;65309;49.790;18.972;2022-12-31T10:05:35;97122.69;;;10.31;71.20
76478;BME280;65309;49.790;18.972;2022-12-31T10:10:46;97108.00;;;10.49;71.22
76478;BME280;65309;49.790;18.972;2022-12-31T10:16:04;97117.66;;;10.53;70.69
76478;BME280;65309;49.790;18.972;2022-12-31T10:21:25;97119.78;;;10.58;71.67
76478;BME280;65309;49.790;18.972;2022-12-31T10:26:40;97129.09;;;10.46;70.96
76478;BME280;65309;49.790;18.972;2022-12-31T10:32:05;97127.63;;;10.60;71.39
76478;BME280;65309;49.790;18.972;2022-12-31T10:37:15;97108.63;;;10.77;71.50
76478;BME280;65309;49.790;18.972;2022-12-31T10:48:25;97105.44;;;11.07;69.38
76478;BME280;65309;49.790;18.972;2022-12-31T10:53:48;97115.72;;;11.07;69.38
76478;BME280;65309;49.790;18.972;2022-12-31T11:15:40;97116.22;;;11.05;70.43
76478;BME280;65309;49.790;18.972;2022-12-31T11:21:04;97111.94;;;11.19;69.60
76478;BME280;65309;49.790;18.972;2022-12-31T11:26:18;97105.66;;;11.19;69.56
76478;BME280;65309;49.790;18.972;2022-12-31T11:31:33;97103.66;;;11.34;69.42
76478;BME280;65309;49.790;18.972;2022-12-31T11:36:43;97093.63;;;11.36;69.37
76478;BME280;65309;49.790;18.972;2022-12-31T11:41:49;97105.19;;;11.35;68.50
76478;BME280;65309;49.790;18.972;2022-12-31T11:47:00;97098.38;;;11.36;69.51
76478;BME280;65309;49.790;18.972;2022-12-31T11:52:29;97105.16;;;11.20;68.95
76478;BME280;65309;49.790;18.972;2022-12-31T11:57:35;97120.53;;;11.36;69.18
76478;BME280;65309;49.790;18.972;2022-12-31T12:02:41;97120.09;;;11.52;69.15
76478;BME280;65309;49.790;18.972;2022-12-31T12:07:45;97121.69;;;11.44;68.06
76478;BME280;65309;49.790;18.972;2022-12-31T12:12:47;97114.44;;;11.46;69.11
76478;BME280;65309;49.790;18.972;2022-12-31T12:17:52;97116.56;;;11.51;68.61
76478;BME280;65309;49.790;18.972;2022-12-31T12:22:57;97137.09;;;11.60;68.86
76478;BME280;65309;49.790;18.972;2022-12-31T12:28:10;97137.00;;;11.69;68.43
76478;BME280;65309;49.790;18.972;2022-12-31T12:33:16;97121.91;;;11.70;68.61
76478;BME280;65309;49.790;18.972;2022-12-31T12:38:21;97114.84;;;11.69;69.22
76478;BME280;65309;49.790;18.972;2022-12-31T12:43:25;97124.88;;;11.51;69.31
76478;BME280;65309;49.790;18.972;2022-12-31T12:48:33;97099.38;;;11.47;69.79
76478;BME280;65309;49.790;18.972;2022-12-31T12:53:44;97096.47;;;11.57;70.30
76478;BME280;65309;49.790;18.972;2022-12-31T12:59:02;97111.13;;;11.42;69.39
76478;BME280;65309;49.790;18.972;2022-12-31T13:04:37;97103.19;;;11.50;69.74
76478;BME280;65309;49.790;18.972;2022-12-31T13:09:58;97094.69;;;11.53;70.21
76478;BME280;65309;49.790;18.972;2022-12-31T13:15:11;97095.81;;;11.62;69.87
76478;BME280;65309;49.790;18.972;2022-12-31T13:20:23;97084.47;;;11.60;70.21
76478;BME280;65309;49.790;18.972;2022-12-31T13:25:35;97091.25;;;11.73;69.58
76478;BME280;65309;49.790;18.972;2022-12-31T13:30:41;97084.00;;;11.76;69.95
76478;BME280;65309;49.790;18.972;2022-12-31T13:35:46;97093.44;;;11.84;69.35
76478;BME280;65309;49.790;18.972;2022-12-31T13:40:58;97088.94;;;11.86;70.65
76478;BME280;65309;49.790;18.972;2022-12-31T13:46:08;97094.75;;;12.03;69.39
76478;BME280;65309;49.790;18.972;2022-12-31T13:51:14;97115.28;;;12.11;68.49
76478;BME280;65309;49.790;18.972;2022-12-31T13:56:24;97120.72;;;12.20;68.92
76478;BME280;65309;49.790;18.972;2022-12-31T14:01:31;97103.09;;;12.23;68.63
76478;BME280;65309;49.790;18.972;2022-12-31T14:06:37;97109.41;;;12.24;68.18
76478;BME280;65309;49.790;18.972;2022-12-31T14:11:53;97100.50;;;11.99;68.84
76478;BME280;65309;49.790;18.972;2022-12-31T14:17:04;97105.75;;;11.97;69.04
76478;BME280;65309;49.790;18.972;2022-12-31T14:22:15;97093.34;;;11.93;69.47
76478;BME280;65309;49.790;18.972;2022-12-31T14:27:26;97094.19;;;11.99;70.27
76478;BME280;65309;49.790;18.972;2022-12-31T14:32:33;97122.94;;;12.16;69.47
76478;BME280;65309;49.790;18.972;2022-12-31T14:37:45;97139.34;;;12.20;68.56
76478;BME280;65309;49.790;18.972;2022-12-31T14:42:58;97155.78;;;12.23;69.02
76478;BME280;65309;49.790;18.972;2022-12-31T14:48:09;97124.91;;;12.30;68.69
76478;BME280;65309;49.790;18.972;2022-12-31T14:53:22;97150.81;;;12.27;67.40
76478;BME280;65309;49.790;18.972;2022-12-31T14:58:31;97125.28;;;12.23;68.11
76478;BME280;65309;49.790;18.972;2022-12-31T15:03:36;97122.59;;;12.29;67.49
76478;BME280;65309;49.790;18.972;2022-12-31T15:08:52;97132.72;;;12.32;67.87
76478;BME280;65309;49.790;18.972;2022-12-31T15:25:21;97134.69;;;13.01;66.50
76478;BME280;65309;49.790;18.972;2022-12-31T15:30:37;97107.06;;;12.92;66.70
76478;BME280;65309;49.790;18.972;2022-12-31T15:35:46;97113.78;;;12.65;66.99
76478;BME280;65309;49.790;18.972;2022-12-31T15:40:50;97120.47;;;12.94;65.83
76478;BME280;65309;49.790;18.972;2022-12-31T15:45:55;97117.72;;;12.99;66.20
76478;BME280;65309;49.790;18.972;2022-12-31T15:51:00;97114.41;;;12.95;65.68
76478;BME280;65309;49.790;18.972;2022-12-31T15:56:02;97098.59;;;12.81;66.99
76478;BME280;65309;49.790;18.972;2022-12-31T16:01:12;97129.25;;;12.92;65.96
76478;BME280;65309;49.790;18.972;2022-12-31T16:06:16;97152.28;;;12.78;66.06
76478;BME280;65309;49.790;18.972;2022-12-31T16:11:18;97159.16;;;12.62;66.23
76478;BME280;65309;49.790;18.972;2022-12-31T16:16:23;97145.13;;;12.51;66.33
76478;BME280;65309;49.790;18.972;2022-12-31T16:21:29;97151.66;;;12.33;67.47
76478;BME280;65309;49.790;18.972;2022-12-31T16:26:41;97145.56;;;12.29;67.73
76478;BME280;65309;49.790;18.972;2022-12-31T16:31:46;97150.19;;;12.18;67.99
76478;BME280;65309;49.790;18.972;2022-12-31T16:37:00;97155.22;;;12.19;66.89
76478;BME280;65309;49.790;18.972;2022-12-31T16:42:14;97161.53;;;12.20;66.83
76478;BME280;65309;49.790;18.972;2022-12-31T16:47:22;97163.81;;;12.36;67.24
76478;BME280;65309;49.790;18.972;2022-12-31T16:52:27;97193.34;;;12.74;66.41
76478;BME280;65309;49.790;18.972;2022-12-31T16:57:31;97193.13;;;12.92;64.82
76478;BME280;65309;49.790;18.972;2022-12-31T17:02:37;97191.78;;;13.08;63.87
76478;BME280;65309;49.790;18.972;2022-12-31T17:07:41;97194.91;;;12.95;63.51
76478;BME280;65309;49.790;18.972;2022-12-31T17:12:45;97190.63;;;12.94;64.87
76478;BME280;65309;49.790;18.972;2022-12-31T17:18:13;97228.56;;;13.17;63.87
76478;BME280;65309;49.790;18.972;2022-12-31T17:23:22;97212.00;;;13.08;64.29
76478;BME280;65309;49.790;18.972;2022-12-31T17:28:29;97218.66;;;12.96;64.58
76478;BME280;65309;49.790;18.972;2022-12-31T17:33:34;97217.56;;;12.73;64.97
76478;BME280;65309;49.790;18.972;2022-12-31T17:38:36;97204.16;;;12.52;65.49
76478;BME280;65309;49.790;18.972;2022-12-31T17:43:39;97213.72;;;12.85;63.78
76478;BME280;65309;49.790;18.972;2022-12-31T17:48:44;97211.88;;;12.62;64.70
76478;BME280;65309;49.790;18.972;2022-12-31T17:53:50;97218.13;;;12.77;64.82
76478;BME280;65309;49.790;18.972;2022-12-31T17:58:52;97240.75;;;12.70;64.41
76478;BME280;65309;49.790;18.972;2022-12-31T18:03:56;97223.75;;;12.98;64.21
76478;BME280;65309;49.790;18.972;2022-12-31T18:08:58;97226.13;;;12.90;63.50
76478;BME280;65309;49.790;18.972;2022-12-31T18:14:00;97232.03;;;13.12;63.53
76478;BME280;65309;49.790;18.972;2022-12-31T18:19:09;97230.19;;;12.89;63.27
76478;BME280;65309;49.790;18.972;2022-12-31T18:24:33;97238.53;;;13.09;63.33
76478;BME280;65309;49.790;18.972;2022-12-31T18:29:35;97226.47;;;13.12;63.27
76478;BME280;65309;49.790;18.972;2022-12-31T18:34:39;97218.22;;;13.18;64.61
76478;BME280;65309;49.790;18.972;2022-12-31T18:39:41;97225.22;;;13.33;62.10
76478;BME280;65309;49.790;18.972;2022-12-31T18:44:43;97218.47;;;13.86;61.10
76478;BME280;65309;49.790;18.972;2022-12-31T18:49:47;97232.78;;;13.53;61.19
76478;BME280;65309;49.790;18.972;2022-12-31T18:54:49;97241.72;;;13.63;61.58
76478;BME280;65309;49.790;18.972;2022-12-31T18:59:51;97238.06;;;13.51;62.08
76478;BME280;65309;49.790;18.972;2022-12-31T19:04:54;97241.88;;;13.13;63.03
76478;BME280;65309;49.790;18.972;2022-12-31T19:09:56;97243.28;;;12.88;63.70
76478;BME280;65309;49.790;18.972;2022-12-31T19:14:59;97254.59;;;13.40;61.45
76478;BME280;65309;49.790;18.972;2022-12-31T19:20:03;97256.50;;;13.74;60.26
76478;BME280;65309;49.790;18.972;2022-12-31T19:25:15;97256.03;;;13.76;61.16
76478;BME280;65309;49.790;18.972;2022-12-31T19:30:21;97270.19;;;13.52;60.46
76478;BME280;65309;49.790;18.972;2022-12-31T19:35:25;97239.53;;;13.47;60.92
76478;BME280;65309;49.790;18.972;2022-12-31T19:40:29;97256.53;;;14.00;59.91
76478;BME280;65309;49.790;18.972;2022-12-31T19:45:32;97242.00;;;13.85;59.55
76478;BME280;65309;49.790;18.972;2022-12-31T19:50:35;97243.06;;;13.93;59.21
76478;BME280;65309;49.790;18.972;2022-12-31T19:55:37;97256.69;;;13.91;59.41
76478;BME280;65309;49.790;18.972;2022-12-31T20:00:39;97251.16;;;13.71;60.85
76478;BME280;65309;49.790;18.972;2022-12-31T20:06:04;97256.69;;;13.91;59.80
76478;BME280;65309;49.790;18.972;2022-12-31T20:11:09;97245.78;;;13.88;60.19
76478;BME280;65309;49.790;18.972;2022-12-31T20:16:13;97249.78;;;13.81;60.06
76478;BME280;65309;49.790;18.972;2022-12-31T20:21:19;97247.22;;;14.03;60.47
76478;BME280;65309;49.790;18.972;2022-12-31T20:26:23;97237.06;;;14.00;59.47
76478;BME280;65309;49.790;18.972;2022-12-31T20:31:25;97219.06;;;13.70;60.11
76478;BME280;65309;49.790;18.972;2022-12-31T20:36:29;97227.41;;;13.70;61.62
76478;BME280;65309;49.790;18.972;2022-12-31T20:41:31;97252.75;;;13.31;59.70
76478;BME280;65309;49.790;18.972;2022-12-31T20:46:34;97228.97;;;13.51;59.60
76478;BME280;65309;49.790;18.972;2022-12-31T20:51:37;97244.59;;;13.28;59.28
76478;BME280;65309;49.790;18.972;2022-12-31T20:56:40;97258.69;;;13.24;60.48
76478;BME280;65309;49.790;18.972;2022-12-31T21:01:42;97254.97;;;13.27;60.63
76478;BME280;65309;49.790;18.972;2022-12-31T21:07:05;97266.22;;;13.39;59.32
76478;BME280;65309;49.790;18.972;2022-12-31T21:12:08;97255.38;;;13.61;58.55
76478;BME280;65309;49.790;18.972;2022-12-31T21:17:29;97250.34;;;13.45;59.18
76478;BME280;65309;49.790;18.972;2022-12-31T21:22:33;97252.56;;;13.81;58.31
76478;BME280;65309;49.790;18.972;2022-12-31T21:27:35;97243.50;;;13.60;57.97
76478;BME280;65309;49.790;18.972;2022-12-31T21:32:37;97246.53;;;13.42;59.17
76478;BME280;65309;49.790;18.972;2022-12-31T21:37:40;97243.00;;;13.42;59.82
76478;BME280;65309;49.790;18.972;2022-12-31T21:43:01;97229.94;;;13.48;59.21
76478;BME280;65309;49.790;18.972;2022-12-31T21:48:03;97241.72;;;13.63;57.12
76478;BME280;65309;49.790;18.972;2022-12-31T21:53:23;97237.94;;;13.60;58.14
76478;BME280;65309;49.790;18.972;2022-12-31T21:58:35;97255.63;;;13.63;57.58
76478;BME280;65309;49.790;18.972;2022-12-31T22:03:38;97236.34;;;13.33;59.37
76478;BME280;65309;49.790;18.972;2022-12-31T22:08:43;97235.13;;;13.40;57.61
76478;BME280;65309;49.790;18.972;2022-12-31T22:13:46;97238.97;;;13.43;57.56
76478;BME280;65309;49.790;18.972;2022-12-31T22:18:48;97244.25;;;13.87;55.97
76478;BME280;65309;49.790;18.972;2022-12-31T22:23:53;97252.56;;;13.81;56.74
76478;BME280;65309;49.790;18.972;2022-12-31T22:28:56;97253.16;;;13.91;55.90
76478;BME280;65309;49.790;18.972;2022-12-31T22:34:00;97242.72;;;14.11;56.85
76478;BME280;65309;49.790;18.972;2022-12-31T22:39:04;97250.38;;;14.16;53.93
76478;BME280;65309;49.790;18.972;2022-12-31T22:44:06;97246.44;;;14.03;55.90
76478;BME280;65309;49.790;18.972;2022-12-31T22:49:09;97229.38;;;14.15;54.63
76478;BME280;65309;49.790;18.972;2022-12-31T22:54:13;97217.47;;;14.41;52.88
76478;BME280;65309;49.790;18.972;2022-12-31T22:59:16;97222.66;;;14.27;54.00
76478;BME280;65309;49.790;18.972;2022-12-31T23:04:18;97231.50;;;14.57;52.58
76478;BME280;65309;49.790;18.972;2022-12-31T23:09:21;97197.97;;;14.72;52.83
76478;BME280;65309;49.790;18.972;2022-12-31T23:14:42;97215.66;;;14.69;53.02
76478;BME280;65309;49.790;18.972;2022-12-31T23:20:04;97214.19;;;14.73;52.17
76478;BME280;65309;49.790;18.972;2022-12-31T23:25:26;97222.38;;;14.51;52.88
76478;BME280;65309;49.790;18.972;2022-12-31T23:30:28;97226.81;;;14.38;52.09
76478;BME280;65309;49.790;18.972;2022-12-31T23:35:30;97234.00;;;14.24;52.37
76478;BME280;65309;49.790;18.972;2022-12-31T23:40:33;97220.59;;;13.97;54.07
76478;BME280;65309;49.790;18.972;2022-12-31T23:45:35;97224.38;;;13.94;54.36
76478;BME280;65309;49.790;18.972;2022-12-31T23:50:38;97226.88;;;13.92;54.09
76478;BME280;65309;49.790;18.972;2022-12-31T23:55:42;97228.03;;;14.05;54.07
